Time;durP1;ratioP1;P1;durP2;ratioP2;P2;SDS_P1;SDS_P2;PMS_P1;PMS_P2;Temp;Humidity;BMP_temperature;BMP_pressure;BME280_temperature;BME280_humidity;BME280_pressure;Samples;Min_cycle;Max_cycle;Signal;HPM_P1;HPM_P2
2022/03/12 00:01:30;;;;;;;11.80;4.07;;;;;;;;;;5057934;28;20106;-77
2022/03/12 00:04:00;;;;;;;11.70;4.90;;;;;;;;;;5062252;28;20051;-77
2022/03/12 00:06:28;;;;;;;6.95;3.47;;;;;;;;;;5055185;28;20608;-77
2022/03/12 00:08:58;;;;;;;10.40;4.28;;;;;;;;;;5052834;28;20096;-77
2022/03/12 00:11:27;;;;;;;8.73;3.95;;;;;;;;;;5058140;28;20067;-77
2022/03/12 00:13:57;;;;;;;8.57;3.92;;;;;;;;;;5065271;28;20067;-77
2022/03/12 00:16:26;;;;;;;8.57;3.85;;;;;;;;;;5058239;28;20378;-76
2022/03/12 00:18:56;;;;;;;9.23;4.22;;;;;;;;;;5060665;28;20083;-77
2022/03/12 00:21:26;;;;;;;8.50;3.60;;;;;;;;;;5068641;28;20126;-76
2022/03/12 00:23:58;;;;;;;6.65;3.85;;;;;;;;;;5077436;28;20045;-77
2022/03/12 00:26:28;;;;;;;10.63;3.97;;;;;;;;;;5068390;28;20079;-77
2022/03/12 00:28:57;;;;;;;10.70;4.63;;;;;;;;;;5062423;28;20045;-77
2022/03/12 00:31:25;;;;;;;10.57;4.35;;;;;;;;;;5065085;28;20055;-77
2022/03/12 00:33:55;;;;;;;10.82;3.78;;;;;;;;;;5061859;28;20072;-76
2022/03/12 00:36:23;;;;;;;9.55;4.05;;;;;;;;;;5063053;28;20077;-77
2022/03/12 00:38:52;;;;;;;8.98;3.90;;;;;;;;;;5062473;28;20560;-77
2022/03/12 00:41:20;;;;;;;7.75;3.90;;;;;;;;;;5066220;28;20048;-77
2022/03/12 00:43:49;;;;;;;8.60;3.92;;;;;;;;;;5065482;28;20076;-77
2022/03/12 00:46:20;;;;;;;6.93;3.65;;;;;;;;;;5060140;28;20132;-77
2022/03/12 00:48:48;;;;;;;9.63;4.30;;;;;;;;;;5060472;28;20071;-77
2022/03/12 00:51:16;;;;;;;7.32;3.63;;;;;;;;;;5056331;28;20443;-77
2022/03/12 00:53:45;;;;;;;11.07;4.55;;;;;;;;;;5058852;28;20044;-77
2022/03/12 00:56:13;;;;;;;10.68;4.15;;;;;;;;;;5061137;28;20048;-77
2022/03/12 00:58:46;;;;;;;9.20;3.83;;;;;;;;;;5063162;28;20127;-77
2022/03/12 01:01:17;;;;;;;8.55;4.57;;;;;;;;;;5056019;28;20543;-77
2022/03/12 01:03:46;;;;;;;10.98;4.05;;;;;;;;;;5056807;28;20041;-77
2022/03/12 01:06:15;;;;;;;9.48;4.30;;;;;;;;;;5056169;28;20118;-77
2022/03/12 01:08:43;;;;;;;8.32;4.10;;;;;;;;;;5060829;28;20129;-77
2022/03/12 01:11:12;;;;;;;10.55;3.95;;;;;;;;;;5065541;28;20135;-77
2022/03/12 01:13:41;;;;;;;8.60;3.85;;;;;;;;;;5053044;28;20076;-77
2022/03/12 01:16:09;;;;;;;13.10;4.30;;;;;;;;;;5066396;28;20484;-77
2022/03/12 01:18:40;;;;;;;12.70;4.40;;;;;;;;;;5059471;28;20084;-76
2022/03/12 01:21:10;;;;;;;10.00;3.85;;;;;;;;;;5063798;28;20036;-77
2022/03/12 01:23:38;;;;;;;10.27;4.85;;;;;;;;;;5066703;28;20086;-77
2022/03/12 01:26:07;;;;;;;7.68;4.43;;;;;;;;;;5065665;28;20074;-76
2022/03/12 01:28:37;;;;;;;9.32;3.80;;;;;;;;;;5062668;28;20385;-77
2022/03/12 01:31:08;;;;;;;9.80;4.72;;;;;;;;;;5056545;28;20458;-77
2022/03/12 01:33:36;;;;;;;9.23;3.97;;;;;;;;;;5066466;28;20049;-76
2022/03/12 01:36:09;;;;;;;9.18;4.25;;;;;;;;;;5064640;28;20148;-77
2022/03/12 01:38:46;;;;;;;8.95;3.85;;;;;;;;;;5062467;28;20567;-77
2022/03/12 01:41:15;;;;;;;9.25;4.22;;;;;;;;;;5057383;28;20075;-76
2022/03/12 01:43:44;;;;;;;10.02;4.03;;;;;;;;;;5067146;28;20611;-76
2022/03/12 01:46:12;;;;;;;10.73;4.18;;;;;;;;;;5057709;28;20395;-76
2022/03/12 01:48:46;;;;;;;8.63;3.92;;;;;;;;;;5060438;28;20082;-76
2022/03/12 01:51:16;;;;;;;8.70;3.75;;;;;;;;;;5061195;28;20111;-76
2022/03/12 01:53:45;;;;;;;9.80;4.45;;;;;;;;;;5061753;28;20102;-76
2022/03/12 01:56:14;;;;;;;10.75;3.78;;;;;;;;;;5055992;28;20079;-76
2022/03/12 01:58:46;;;;;;;9.55;3.88;;;;;;;;;;5058383;28;20044;-76
2022/03/12 02:01:14;;;;;;;8.35;3.58;;;;;;;;;;5062360;28;20119;-76
2022/03/12 02:03:45;;;;;;;9.90;4.13;;;;;;;;;;5069531;28;20136;-76
2022/03/12 02:06:22;;;;;;;9.50;3.72;;;;;;;;;;5061724;28;20563;-76
2022/03/12 02:08:53;;;;;;;7.30;4.10;;;;;;;;;;5056579;28;20110;-76
2022/03/12 02:11:27;;;;;;;11.25;4.95;;;;;;;;;;5057299;28;20077;-76
2022/03/12 02:13:59;;;;;;;10.60;4.20;;;;;;;;;;5063134;28;20127;-76
2022/03/12 02:16:28;;;;;;;10.55;4.22;;;;;;;;;;5061814;28;20148;-77
2022/03/12 02:18:56;;;;;;;12.27;3.65;;;;;;;;;;5053567;28;20052;-77
2022/03/12 02:21:35;;;;;;;11.23;4.03;;;;;;;;;;5060697;28;20513;-77
2022/03/12 02:24:06;;;;;;;8.15;3.92;;;;;;;;;;5055228;28;20048;-76
2022/03/12 02:26:34;;;;;;;10.70;3.55;;;;;;;;;;5063255;28;20551;-77
2022/03/12 02:29:03;;;;;;;10.40;4.05;;;;;;;;;;5064699;28;20072;-77
2022/03/12 02:31:31;;;;;;;9.30;3.70;;;;;;;;;;5064946;28;20132;-77
2022/03/12 02:34:02;;;;;;;11.48;4.30;;;;;;;;;;5061061;28;20119;-76
2022/03/12 02:36:30;;;;;;;12.93;4.45;;;;;;;;;;5054940;28;20506;-77
2022/03/12 02:39:04;;;;;;;8.15;3.70;;;;;;;;;;5059006;28;20045;-77
2022/03/12 02:41:35;;;;;;;9.07;3.65;;;;;;;;;;5066311;28;20041;-77
2022/03/12 02:44:03;;;;;;;9.75;4.05;;;;;;;;;;5061975;28;20041;-77
2022/03/12 02:46:32;;;;;;;9.13;3.97;;;;;;;;;;5061346;28;20484;-76
2022/03/12 02:49:00;;;;;;;10.27;3.65;;;;;;;;;;5060114;28;20049;-76
2022/03/12 02:51:28;;;;;;;8.43;3.85;;;;;;;;;;5058331;28;20135;-76
2022/03/12 02:53:57;;;;;;;7.00;3.47;;;;;;;;;;5059815;28;20051;-76
2022/03/12 02:56:25;;;;;;;8.43;4.03;;;;;;;;;;5063629;28;20048;-76
2022/03/12 02:58:55;;;;;;;10.50;4.22;;;;;;;;;;5056900;28;20122;-76
2022/03/12 03:01:26;;;;;;;9.73;3.92;;;;;;;;;;5059193;28;20068;-76
2022/03/12 03:03:56;;;;;;;9.45;4.18;;;;;;;;;;5060227;28;20484;-76
2022/03/12 03:06:24;;;;;;;7.50;3.63;;;;;;;;;;5059180;28;20140;-76
2022/03/12 03:08:53;;;;;;;9.93;4.20;;;;;;;;;;5062347;28;20115;-77
2022/03/12 03:11:21;;;;;;;8.73;3.38;;;;;;;;;;5064592;28;20127;-77
2022/03/12 03:13:50;;;;;;;8.25;4.10;;;;;;;;;;5064209;28;20050;-76
2022/03/12 03:16:21;;;;;;;15.73;4.43;;;;;;;;;;5067054;28;20551;-76
2022/03/12 03:18:54;;;;;;;11.15;4.25;;;;;;;;;;5059410;28;20075;-76
2022/03/12 03:21:24;;;;;;;10.05;3.95;;;;;;;;;;5064312;28;20052;-76
2022/03/12 03:23:54;;;;;;;11.95;3.85;;;;;;;;;;5062988;28;20098;-76
2022/03/12 03:26:23;;;;;;;13.85;4.35;;;;;;;;;;5062103;28;20049;-77
2022/03/12 03:28:51;;;;;;;9.48;4.07;;;;;;;;;;5062914;28;20404;-77
2022/03/12 03:31:21;;;;;;;12.68;3.83;;;;;;;;;;5059470;28;20091;-76
2022/03/12 03:33:49;;;;;;;9.50;3.90;;;;;;;;;;5059281;28;20096;-76
2022/03/12 03:36:18;;;;;;;11.27;4.45;;;;;;;;;;5068972;28;20046;-77
2022/03/12 03:38:47;;;;;;;7.28;3.28;;;;;;;;;;5053117;28;20500;-77
2022/03/12 03:41:15;;;;;;;8.45;3.95;;;;;;;;;;5066159;28;20578;-76
2022/03/12 03:43:46;;;;;;;11.05;3.92;;;;;;;;;;5063498;28;20131;-77
2022/03/12 03:46:17;;;;;;;10.60;4.55;;;;;;;;;;5054071;28;20514;-76
2022/03/12 03:48:47;;;;;;;11.90;4.00;;;;;;;;;;5052989;28;20518;-77
2022/03/12 03:51:16;;;;;;;11.82;4.82;;;;;;;;;;5060436;28;20106;-76
2022/03/12 03:53:44;;;;;;;10.45;4.20;;;;;;;;;;5066254;28;20131;-76
2022/03/12 03:56:12;;;;;;;9.15;4.68;;;;;;;;;;5062460;28;20523;-76
2022/03/12 03:58:41;;;;;;;10.18;4.07;;;;;;;;;;5051542;28;20144;-77
2022/03/12 04:01:12;;;;;;;8.32;4.15;;;;;;;;;;5060107;28;20135;-77
2022/03/12 04:03:42;;;;;;;11.07;4.03;;;;;;;;;;5059983;28;20052;-76
2022/03/12 04:06:12;;;;;;;11.40;4.43;;;;;;;;;;5050444;28;20153;-76
2022/03/12 04:08:41;;;;;;;10.77;4.22;;;;;;;;;;5057582;28;20077;-77
2022/03/12 04:11:14;;;;;;;11.52;4.43;;;;;;;;;;5064236;28;20114;-76
2022/03/12 04:13:43;;;;;;;9.45;4.43;;;;;;;;;;5061964;28;20041;-77
2022/03/12 04:16:12;;;;;;;13.07;4.80;;;;;;;;;;5052685;28;20136;-76
2022/03/12 04:18:42;;;;;;;9.02;3.70;;;;;;;;;;5059557;28;20048;-77
2022/03/12 04:21:13;;;;;;;9.40;4.47;;;;;;;;;;5055695;28;20447;-76
2022/03/12 04:23:41;;;;;;;7.97;3.80;;;;;;;;;;5059048;28;20052;-77
2022/03/12 04:26:10;;;;;;;8.60;3.38;;;;;;;;;;5065061;28;20064;-76
2022/03/12 04:28:39;;;;;;;10.07;3.80;;;;;;;;;;5059954;28;20111;-77
2022/03/12 04:31:08;;;;;;;13.07;4.05;;;;;;;;;;5059231;28;20051;-77
2022/03/12 04:33:38;;;;;;;9.35;4.10;;;;;;;;;;5052492;28;20142;-77
2022/03/12 04:36:11;;;;;;;8.27;4.25;;;;;;;;;;5050080;28;20450;-76
2022/03/12 04:38:41;;;;;;;9.73;4.25;;;;;;;;;;5054172;28;20493;-76
2022/03/12 04:41:13;;;;;;;7.88;4.10;;;;;;;;;;5066842;28;20087;-76
2022/03/12 04:43:42;;;;;;;9.77;4.20;;;;;;;;;;5055814;28;20049;-76
2022/03/12 04:46:11;;;;;;;7.03;3.30;;;;;;;;;;5053531;28;20104;-76
2022/03/12 04:48:39;;;;;;;8.35;4.38;;;;;;;;;;5053460;28;20556;-77
2022/03/12 04:51:07;;;;;;;7.97;3.95;;;;;;;;;;5052943;28;20143;-76
2022/03/12 04:53:36;;;;;;;8.75;4.72;;;;;;;;;;5054653;28;20124;-76
2022/03/12 04:56:10;;;;;;;9.70;4.05;;;;;;;;;;5057156;28;21382;-77
2022/03/12 04:58:39;;;;;;;8.13;4.28;;;;;;;;;;5066960;28;20101;-76
2022/03/12 05:01:07;;;;;;;11.18;4.03;;;;;;;;;;5062674;28;20044;-76
2022/03/12 05:03:37;;;;;;;8.45;4.10;;;;;;;;;;5064724;28;20056;-76
2022/03/12 05:06:10;;;;;;;9.82;3.85;;;;;;;;;;5062768;28;20053;-77
2022/03/12 05:08:38;;;;;;;10.27;4.10;;;;;;;;;;5051960;28;20128;-77
2022/03/12 05:11:09;;;;;;;11.27;4.88;;;;;;;;;;5068647;28;20102;-77
2022/03/12 05:13:37;;;;;;;7.50;3.90;;;;;;;;;;5056274;28;20134;-76
2022/03/12 05:16:09;;;;;;;7.25;3.58;;;;;;;;;;5070473;28;20162;-77
2022/03/12 05:18:40;;;;;;;9.25;3.70;;;;;;;;;;5058124;28;20056;-77
2022/03/12 05:21:08;;;;;;;7.40;4.00;;;;;;;;;;5070311;28;20123;-77
2022/03/12 05:23:36;;;;;;;12.60;4.88;;;;;;;;;;5061750;28;20165;-76
2022/03/12 05:26:09;;;;;;;10.73;4.47;;;;;;;;;;5067575;28;20056;-77
2022/03/12 05:28:39;;;;;;;11.55;4.78;;;;;;;;;;5057820;28;20099;-77
2022/03/12 05:31:09;;;;;;;8.82;4.03;;;;;;;;;;5063957;28;20128;-77
2022/03/12 05:33:38;;;;;;;8.27;4.18;;;;;;;;;;5061888;28;20081;-77
2022/03/12 05:36:09;;;;;;;11.27;4.25;;;;;;;;;;5060009;28;20117;-77
2022/03/12 05:38:38;;;;;;;6.68;3.83;;;;;;;;;;5064244;28;20080;-77
2022/03/12 05:41:11;;;;;;;8.48;3.97;;;;;;;;;;5058077;28;20995;-77
2022/03/12 05:43:43;;;;;;;10.25;4.97;;;;;;;;;;5067472;28;20060;-77
2022/03/12 05:46:15;;;;;;;9.38;4.32;;;;;;;;;;5055710;28;20057;-76
2022/03/12 05:48:45;;;;;;;9.93;4.28;;;;;;;;;;5054294;28;20049;-76
2022/03/12 05:51:14;;;;;;;8.38;3.58;;;;;;;;;;5054346;28;20114;-76
2022/03/12 05:53:44;;;;;;;8.50;4.32;;;;;;;;;;5055050;28;20045;-75
2022/03/12 05:56:13;;;;;;;14.95;4.72;;;;;;;;;;5055937;28;20060;-76
2022/03/12 05:58:42;;;;;;;10.30;4.55;;;;;;;;;;5057861;28;20132;-77
2022/03/12 06:01:10;;;;;;;7.75;3.95;;;;;;;;;;5056732;28;20044;-77
2022/03/12 06:03:39;;;;;;;13.15;4.57;;;;;;;;;;5056548;28;20523;-77
2022/03/12 06:06:08;;;;;;;12.20;4.43;;;;;;;;;;5060263;28;20048;-77
2022/03/12 06:08:38;;;;;;;14.45;4.38;;;;;;;;;;5051758;28;20274;-77
2022/03/12 06:11:10;;;;;;;11.10;4.63;;;;;;;;;;5057586;28;20131;-76
2022/03/12 06:13:41;;;;;;;15.18;4.68;;;;;;;;;;5058024;28;20072;-77
2022/03/12 06:16:10;;;;;;;11.68;4.55;;;;;;;;;;5061838;28;20051;-77
2022/03/12 06:18:39;;;;;;;11.23;4.60;;;;;;;;;;5064830;28;20048;-78
2022/03/12 06:21:08;;;;;;;11.45;4.57;;;;;;;;;;5057371;28;20135;-77
2022/03/12 06:23:37;;;;;;;12.75;4.55;;;;;;;;;;5058246;28;20049;-76
2022/03/12 06:26:14;;;;;;;9.65;3.85;;;;;;;;;;5055233;28;20127;-76
2022/03/12 06:28:44;;;;;;;15.30;5.05;;;;;;;;;;5056683;28;20052;-76
2022/03/12 06:31:14;;;;;;;8.98;3.70;;;;;;;;;;5062109;28;20135;-76
2022/03/12 06:33:43;;;;;;;11.73;4.63;;;;;;;;;;5069445;28;20048;-76
2022/03/12 06:36:12;;;;;;;8.60;3.97;;;;;;;;;;5054603;28;20479;-76
2022/03/12 06:38:41;;;;;;;12.32;4.90;;;;;;;;;;5064039;28;20131;-77
2022/03/12 06:41:09;;;;;;;14.73;5.40;;;;;;;;;;5057861;28;20041;-76
2022/03/12 06:43:42;;;;;;;9.68;4.82;;;;;;;;;;5059540;28;20060;-76
2022/03/12 06:46:14;;;;;;;10.60;4.43;;;;;;;;;;5053052;28;20102;-76
2022/03/12 06:48:45;;;;;;;11.00;4.03;;;;;;;;;;5066983;28;20495;-77
2022/03/12 06:51:14;;;;;;;14.70;4.53;;;;;;;;;;5056839;28;20252;-77
2022/03/12 06:53:42;;;;;;;9.60;4.38;;;;;;;;;;5068204;28;20040;-77
2022/03/12 06:56:10;;;;;;;12.57;4.60;;;;;;;;;;5055108;28;20040;-77
2022/03/12 06:58:39;;;;;;;10.80;4.15;;;;;;;;;;5059831;28;20140;-77
2022/03/12 07:01:07;;;;;;;9.32;4.35;;;;;;;;;;5056033;28;20058;-78
2022/03/12 07:03:38;;;;;;;9.40;4.40;;;;;;;;;;5050927;28;20045;-76
2022/03/12 07:06:09;;;;;;;8.68;4.13;;;;;;;;;;5063592;28;20135;-77
2022/03/12 07:08:38;;;;;;;8.35;4.22;;;;;;;;;;5053845;28;20091;-77
2022/03/12 07:11:10;;;;;;;10.95;4.47;;;;;;;;;;5056570;28;20131;-76
2022/03/12 07:13:38;;;;;;;10.93;4.50;;;;;;;;;;5052954;28;20051;-76
2022/03/12 07:16:07;;;;;;;10.40;4.75;;;;;;;;;;5055907;28;20132;-76
2022/03/12 07:18:35;;;;;;;8.73;3.90;;;;;;;;;;5059038;28;20098;-77
2022/03/12 07:21:08;;;;;;;8.20;4.18;;;;;;;;;;5059171;28;20048;-77
2022/03/12 07:23:36;;;;;;;10.35;4.38;;;;;;;;;;5051421;28;20053;-76
2022/03/12 07:26:08;;;;;;;10.43;4.68;;;;;;;;;;5057358;28;20163;-76
2022/03/12 07:28:36;;;;;;;11.10;4.65;;;;;;;;;;5050863;28;20076;-77
2022/03/12 07:31:07;;;;;;;10.93;5.05;;;;;;;;;;5064334;28;20539;-76
2022/03/12 07:33:36;;;;;;;12.60;4.47;;;;;;;;;;5063363;28;20068;-76
2022/03/12 07:36:11;;;;;;;12.27;4.75;;;;;;;;;;5057282;28;20063;-76
2022/03/12 07:38:39;;;;;;;;;;;;;;;;;;5054207;28;20048;-77
2022/03/12 07:41:07;;;;;;;9.25;4.30;;;;;;;;;;5052782;28;20283;-76
2022/03/12 07:43:36;;;;;;;11.93;4.82;;;;;;;;;;5049216;28;20496;-77
2022/03/12 07:46:07;;;;;;;12.40;5.55;;;;;;;;;;5055653;28;21106;-77
2022/03/12 07:48:35;;;;;;;10.30;5.45;;;;;;;;;;5055824;28;20453;-77
2022/03/12 07:51:09;;;;;;;13.40;4.40;;;;;;;;;;5047823;28;20055;-77
2022/03/12 07:53:38;;;;;;;11.32;5.00;;;;;;;;;;5045940;28;20080;-77
2022/03/12 07:56:09;;;;;;;11.57;4.85;;;;;;;;;;5046518;28;20048;-77
2022/03/12 07:58:38;;;;;;;11.18;5.13;;;;;;;;;;5055637;28;20060;-76
2022/03/12 08:01:09;;;;;;;12.48;5.53;;;;;;;;;;5053326;28;20098;-77
2022/03/12 08:03:38;;;;;;;9.73;4.85;;;;;;;;;;5057069;28;20103;-77
2022/03/12 08:06:08;;;;;;;8.27;4.57;;;;;;;;;;5065870;28;20055;-77
2022/03/12 08:08:37;;;;;;;13.48;4.88;;;;;;;;;;5058195;28;20482;-77
2022/03/12 08:11:28;;;;;;;12.93;5.03;;;;;;;;;;5056710;28;20115;-77
2022/03/12 08:13:57;;;;;;;12.38;5.15;;;;;;;;;;5061199;28;20052;-77
2022/03/12 08:16:27;;;;;;;13.77;5.57;;;;;;;;;;5054257;28;20072;-77
2022/03/12 08:18:56;;;;;;;19.10;5.47;;;;;;;;;;5054095;28;20060;-77
2022/03/12 08:21:24;;;;;;;12.80;5.40;;;;;;;;;;5050666;28;20105;-77
2022/03/12 08:23:54;;;;;;;12.02;5.50;;;;;;;;;;5048559;28;20048;-77
2022/03/12 08:26:23;;;;;;;13.65;5.57;;;;;;;;;;5048311;28;20128;-77
2022/03/12 08:28:51;;;;;;;14.10;5.90;;;;;;;;;;5048065;28;20156;-77
2022/03/12 08:31:20;;;;;;;17.75;5.93;;;;;;;;;;5054724;28;20059;-77
2022/03/12 08:33:48;;;;;;;11.85;5.60;;;;;;;;;;5051888;28;20053;-77
2022/03/12 08:36:17;;;;;;;13.93;5.53;;;;;;;;;;5052571;28;20049;-77
2022/03/12 08:38:45;;;;;;;14.07;5.93;;;;;;;;;;5048387;28;20146;-77
2022/03/12 08:41:16;;;;;;;14.10;5.70;;;;;;;;;;5056331;28;20258;-77
2022/03/12 08:43:46;;;;;;;12.68;5.82;;;;;;;;;;5060552;28;20053;-77
2022/03/12 08:46:15;;;;;;;12.30;5.55;;;;;;;;;;5058334;28;20088;-77
2022/03/12 08:48:49;;;;;;;15.27;6.40;;;;;;;;;;5054671;28;20052;-78
2022/03/12 08:51:17;;;;;;;11.75;5.75;;;;;;;;;;5055035;28;20124;-78
2022/03/12 08:53:46;;;;;;;13.68;6.18;;;;;;;;;;5055743;28;20393;-77
2022/03/12 08:56:14;;;;;;;17.60;6.55;;;;;;;;;;5053105;28;20060;-78
2022/03/12 08:58:44;;;;;;;11.45;5.82;;;;;;;;;;5059870;28;20044;-78
2022/03/12 09:01:12;;;;;;;17.90;7.13;;;;;;;;;;5055524;28;20139;-78
2022/03/12 09:03:41;;;;;;;15.32;6.80;;;;;;;;;;5053243;28;20079;-78
2022/03/12 09:06:10;;;;;;;14.48;7.00;;;;;;;;;;5049618;28;20126;-78
2022/03/12 09:08:39;;;;;;;16.70;6.53;;;;;;;;;;5054957;28;20107;-79
2022/03/12 09:11:07;;;;;;;12.98;6.90;;;;;;;;;;5059450;28;20052;-78
2022/03/12 09:13:36;;;;;;;15.48;6.93;;;;;;;;;;5053746;28;20118;-79
2022/03/12 09:16:08;;;;;;;12.00;6.22;;;;;;;;;;5056276;28;20176;-82
2022/03/12 09:18:36;;;;;;;14.93;6.57;;;;;;;;;;5062498;28;20064;-82
2022/03/12 09:21:08;;;;;;;15.02;6.50;;;;;;;;;;5058639;28;20075;-82
2022/03/12 09:23:36;;;;;;;13.77;6.78;;;;;;;;;;5056323;28;20127;-82
2022/03/12 09:26:08;;;;;;;19.05;6.85;;;;;;;;;;5061771;28;20151;-82
2022/03/12 09:28:36;;;;;;;14.70;6.65;;;;;;;;;;5062918;28;20080;-82
2022/03/12 09:31:09;;;;;;;15.65;6.70;;;;;;;;;;5060333;28;20079;-82
2022/03/12 09:33:38;;;;;;;16.35;7.13;;;;;;;;;;5054192;28;20048;-82
2022/03/12 09:36:10;;;;;;;17.48;7.30;;;;;;;;;;5062174;28;20063;-82
2022/03/12 09:38:39;;;;;;;17.52;6.80;;;;;;;;;;5054162;28;20115;-82
2022/03/12 09:41:08;;;;;;;14.93;6.93;;;;;;;;;;5052868;28;20056;-82
2022/03/12 09:43:36;;;;;;;20.73;6.78;;;;;;;;;;5057929;28;20044;-82
2022/03/12 09:46:09;;;;;;;16.35;6.85;;;;;;;;;;5055510;28;20088;-82
2022/03/12 09:48:38;;;;;;;15.88;6.55;;;;;;;;;;5051202;28;20056;-82
2022/03/12 09:51:10;;;;;;;16.63;6.47;;;;;;;;;;5055456;28;20054;-81
2022/03/12 09:53:38;;;;;;;16.58;7.20;;;;;;;;;;5058201;28;20069;-82
2022/03/12 09:56:06;;;;;;;12.85;7.25;;;;;;;;;;5062625;28;20049;-83
2022/03/12 09:58:35;;;;;;;15.70;6.80;;;;;;;;;;5058312;28;20076;-82
2022/03/12 10:01:06;;;;;;;17.45;6.60;;;;;;;;;;5053970;28;20045;-82
2022/03/12 10:03:37;;;;;;;16.20;7.38;;;;;;;;;;5060214;28;20080;-82
2022/03/12 10:06:08;;;;;;;14.75;7.65;;;;;;;;;;5052535;28;20123;-83
2022/03/12 10:08:45;;;;;;;14.80;7.55;;;;;;;;;;5060158;28;20488;-83
2022/03/12 10:11:13;;;;;;;14.63;7.57;;;;;;;;;;5052017;28;20092;-81
2022/03/12 10:13:42;;;;;;;20.30;8.15;;;;;;;;;;5059061;28;20598;-79
2022/03/12 10:16:11;;;;;;;15.90;7.60;;;;;;;;;;5058126;28;20153;-78
2022/03/12 10:18:41;;;;;;;14.75;6.82;;;;;;;;;;5057457;28;20044;-77
2022/03/12 10:21:09;;;;;;;18.13;8.05;;;;;;;;;;5052542;28;20067;-78
2022/03/12 10:23:37;;;;;;;16.98;7.70;;;;;;;;;;5051361;28;20092;-78
2022/03/12 10:26:09;;;;;;;17.77;7.57;;;;;;;;;;5055526;28;20133;-77
2022/03/12 10:28:37;;;;;;;14.98;7.53;;;;;;;;;;5056123;28;20543;-79
2022/03/12 10:31:09;;;;;;;17.88;7.88;;;;;;;;;;5060653;28;20103;-77
2022/03/12 10:33:37;;;;;;;17.67;8.48;;;;;;;;;;5057460;28;20056;-79
2022/03/12 10:36:14;;;;;;;15.32;7.95;;;;;;;;;;5052818;28;20485;-79
2022/03/12 10:38:43;;;;;;;16.50;8.20;;;;;;;;;;5055547;28;20058;-79
2022/03/12 10:41:12;;;;;;;19.67;8.43;;;;;;;;;;5052640;28;20551;-79
2022/03/12 10:43:47;;;;;;;14.20;7.28;;;;;;;;;;5053326;28;20474;-82
2022/03/12 10:46:22;;;;;;;16.67;8.25;;;;;;;;;;5054704;28;20230;-78
2022/03/12 10:48:56;;;;;;;17.63;8.43;;;;;;;;;;5051173;28;20062;-79
2022/03/12 10:51:32;;;;;;;22.23;9.13;;;;;;;;;;5048726;28;20086;-79
2022/03/12 10:54:05;;;;;;;22.45;8.10;;;;;;;;;;5054817;28;20064;-78
2022/03/12 10:56:44;;;;;;;19.48;8.93;;;;;;;;;;5050657;28;20488;-80
2022/03/12 10:59:14;;;;;;;18.42;9.38;;;;;;;;;;5060862;28;20518;-78
2022/03/12 11:01:49;;;;;;;15.32;7.85;;;;;;;;;;5055757;28;20088;-78
2022/03/12 11:04:18;;;;;;;17.50;8.68;;;;;;;;;;5047408;28;20051;-78
2022/03/12 11:06:48;;;;;;;19.95;8.63;;;;;;;;;;5050990;28;20124;-78
2022/03/12 11:09:18;;;;;;;16.02;8.27;;;;;;;;;;5053218;28;20143;-79
2022/03/12 11:11:47;;;;;;;15.70;8.35;;;;;;;;;;5047570;28;20123;-79
2022/03/12 11:14:19;;;;;;;19.73;7.95;;;;;;;;;;5052863;28;20055;-78
2022/03/12 11:16:52;;;;;;;16.92;8.02;;;;;;;;;;5058941;28;20170;-81
2022/03/12 11:19:37;;;;;;;20.38;8.60;;;;;;;;;;5051899;28;20063;-78
2022/03/12 11:22:14;;;;;;;18.15;8.63;;;;;;;;;;5054045;28;20049;-80
2022/03/12 11:24:46;;;;;;;18.48;8.30;;;;;;;;;;5055915;28;20531;-80
2022/03/12 11:27:22;;;;;;;;;;;;;;;;;;5057452;28;20045;-80
2022/03/12 11:29:58;;;;;;;21.17;9.13;;;;;;;;;;5064520;28;20035;-80
2022/03/12 11:32:30;;;;;;;20.10;8.40;;;;;;;;;;5055656;28;20060;-80
2022/03/12 11:35:06;;;;;;;19.88;9.13;;;;;;;;;;5053473;28;20068;-82
2022/03/12 11:37:37;;;;;;;16.88;8.10;;;;;;;;;;5057467;28;20163;-81
2022/03/12 11:40:10;;;;;;;16.95;8.40;;;;;;;;;;5055082;28;20044;-80
2022/03/12 11:42:41;;;;;;;25.92;9.50;;;;;;;;;;5063003;28;20080;-80
2022/03/12 11:45:11;;;;;;;23.45;8.90;;;;;;;;;;5050165;28;20045;-81
2022/03/12 11:47:40;;;;;;;20.48;8.77;;;;;;;;;;5063632;28;20045;-80
2022/03/12 11:50:13;;;;;;;22.13;9.02;;;;;;;;;;5053282;28;20067;-78
2022/03/12 11:52:43;;;;;;;19.40;8.98;;;;;;;;;;5062353;28;20450;-78
2022/03/12 11:55:21;;;;;;;19.85;9.27;;;;;;;;;;5053320;28;20137;-78
2022/03/12 11:57:51;;;;;;;17.38;8.50;;;;;;;;;;5051612;28;20049;-78
2022/03/12 12:00:22;;;;;;;22.00;10.00;;;;;;;;;;5053296;28;20071;-78
2022/03/12 12:02:52;;;;;;;20.30;9.45;;;;;;;;;;5053959;28;20469;-78
2022/03/12 12:05:22;;;;;;;19.15;8.63;;;;;;;;;;5050985;28;20056;-78
2022/03/12 12:07:52;;;;;;;19.17;9.50;;;;;;;;;;5050468;28;20542;-78
2022/03/12 12:10:21;;;;;;;21.23;9.40;;;;;;;;;;5060458;28;20052;-79
2022/03/12 12:12:51;;;;;;;20.42;9.73;;;;;;;;;;5056334;28;20135;-79
2022/03/12 12:15:26;;;;;;;23.85;9.68;;;;;;;;;;5062396;28;20103;-80
2022/03/12 12:18:00;;;;;;;24.58;10.57;;;;;;;;;;5061449;28;20052;-79
2022/03/12 12:20:29;;;;;;;23.17;9.82;;;;;;;;;;5063196;28;20041;-76
2022/03/12 12:22:59;;;;;;;23.00;10.48;;;;;;;;;;5051022;28;20049;-80
2022/03/12 12:25:31;;;;;;;25.73;9.60;;;;;;;;;;5059193;28;20091;-80
2022/03/12 12:28:00;;;;;;;23.63;10.35;;;;;;;;;;5057160;28;20041;-80
2022/03/12 12:30:39;;;;;;;23.88;10.07;;;;;;;;;;5060481;28;20052;-80
2022/03/12 12:33:18;;;;;;;20.48;9.85;;;;;;;;;;5057944;28;20128;-80
2022/03/12 12:35:47;;;;;;;23.40;10.13;;;;;;;;;;5047917;28;20547;-80
2022/03/12 12:38:20;;;;;;;22.60;9.35;;;;;;;;;;5053660;28;20041;-80
2022/03/12 12:40:50;;;;;;;21.77;9.32;;;;;;;;;;5066923;28;20063;-78
2022/03/12 12:43:20;;;;;;;21.20;9.70;;;;;;;;;;5059123;28;20056;-78
2022/03/12 12:46:25;;;;;;;22.05;9.82;;;;;;;;;;5068641;28;20127;-78
2022/03/12 12:49:00;;;;;;;21.20;9.65;;;;;;;;;;5064586;28;20043;-79
2022/03/12 12:51:30;;;;;;;29.00;10.50;;;;;;;;;;5064539;28;20076;-80
2022/03/12 12:57:02;;;;;;;24.50;10.48;;;;;;;;;;5061726;28;20052;-80
2022/03/12 12:59:41;;;;;;;18.27;9.00;;;;;;;;;;5074847;28;20140;-79
2022/03/12 13:02:12;;;;;;;25.52;10.20;;;;;;;;;;5065183;28;20044;-78
2022/03/12 13:04:46;;;;;;;21.55;9.38;;;;;;;;;;5070444;28;20196;-80
2022/03/12 13:07:25;;;;;;;21.27;9.80;;;;;;;;;;5062411;28;20301;-80
2022/03/12 13:10:03;;;;;;;23.80;10.27;;;;;;;;;;5064629;28;20055;-79
2022/03/12 13:12:39;;;;;;;;;;;;;;;;;;5067893;28;20052;-80
2022/03/12 13:15:14;;;;;;;23.95;9.77;;;;;;;;;;5064481;28;21069;-80
2022/03/12 13:17:43;;;;;;;23.38;10.07;;;;;;;;;;5069040;28;20045;-78
2022/03/12 13:20:30;;;;;;;24.25;11.40;;;;;;;;;;5058245;28;20053;-78
2022/03/12 13:22:59;;;;;;;23.08;9.77;;;;;;;;;;5065770;28;20500;-79
2022/03/12 13:25:29;;;;;;;19.38;9.52;;;;;;;;;;5073769;28;20044;-79
2022/03/12 13:28:02;;;;;;;;;;;;;;;;;;5083223;28;20051;-78
2022/03/12 13:30:35;;;;;;;20.00;10.18;;;;;;;;;;5079236;28;19971;-78
2022/03/12 13:33:06;;;;;;;20.23;8.98;;;;;;;;;;5078501;28;20076;-79
2022/03/12 13:35:35;;;;;;;17.65;9.70;;;;;;;;;;5082301;28;20059;-80
2022/03/12 13:38:04;;;;;;;20.35;9.02;;;;;;;;;;5082024;28;20048;-80
2022/03/12 13:40:34;;;;;;;20.42;9.32;;;;;;;;;;5089731;28;20189;-79
2022/03/12 13:43:07;;;;;;;18.38;8.80;;;;;;;;;;5088560;28;20555;-80
2022/03/12 13:45:36;;;;;;;19.75;9.82;;;;;;;;;;5094508;28;20787;-79
2022/03/12 13:48:04;;;;;;;18.55;8.75;;;;;;;;;;5085173;28;20044;-80
2022/03/12 13:50:33;;;;;;;18.95;9.30;;;;;;;;;;5089495;28;20204;-80
2022/03/12 13:53:02;;;;;;;18.58;8.68;;;;;;;;;;5085183;28;20462;-80
2022/03/12 13:55:31;;;;;;;20.92;8.38;;;;;;;;;;5078487;28;20044;-79
2022/03/12 13:58:02;;;;;;;17.80;8.57;;;;;;;;;;5092293;28;20072;-80
2022/03/12 14:00:35;;;;;;;18.80;9.00;;;;;;;;;;5080306;28;20486;-80
2022/03/12 14:03:04;;;;;;;16.52;8.75;;;;;;;;;;5079756;28;20041;-79
2022/03/12 14:05:36;;;;;;;18.08;8.68;;;;;;;;;;5084813;28;20068;-79
2022/03/12 14:08:16;;;;;;;18.83;8.30;;;;;;;;;;5089367;28;20348;-80
2022/03/12 14:10:46;;;;;;;19.08;8.73;;;;;;;;;;5064177;28;20139;-79
2022/03/12 14:13:17;;;;;;;16.92;8.60;;;;;;;;;;5077919;28;20052;-80
2022/03/12 14:15:46;;;;;;;24.40;9.65;;;;;;;;;;5082165;28;20598;-80
2022/03/12 14:18:25;;;;;;;19.13;8.82;;;;;;;;;;5088365;28;20119;-82
2022/03/12 14:20:54;;;;;;;17.50;8.60;;;;;;;;;;5073445;28;20048;-82
2022/03/12 14:23:22;;;;;;;19.45;8.90;;;;;;;;;;5078745;28;20087;-81
2022/03/12 14:25:56;;;;;;;18.17;8.55;;;;;;;;;;5076578;28;20043;-80
2022/03/12 14:28:26;;;;;;;16.48;7.53;;;;;;;;;;5078785;28;20048;-81
2022/03/12 14:30:55;;;;;;;17.10;8.38;;;;;;;;;;5088277;28;20086;-81
2022/03/12 14:33:24;;;;;;;15.77;8.35;;;;;;;;;;5090533;28;20043;-77
2022/03/12 14:35:52;;;;;;;16.77;8.05;;;;;;;;;;5081459;28;20056;-78
2022/03/12 14:38:20;;;;;;;16.40;8.15;;;;;;;;;;5082084;28;20127;-79
2022/03/12 14:40:49;;;;;;;17.20;7.85;;;;;;;;;;5086614;28;20098;-80
2022/03/12 14:43:17;;;;;;;16.35;8.18;;;;;;;;;;5090778;28;20052;-80
2022/03/12 14:45:47;;;;;;;15.40;7.28;;;;;;;;;;5075306;28;20082;-80
2022/03/12 14:48:17;;;;;;;14.30;7.60;;;;;;;;;;5088233;28;20087;-81
2022/03/12 14:50:46;;;;;;;16.02;6.78;;;;;;;;;;5097892;28;20044;-81
2022/03/12 14:53:16;;;;;;;14.10;7.45;;;;;;;;;;5086276;28;20098;-80
2022/03/12 14:55:45;;;;;;;16.20;7.80;;;;;;;;;;5084341;28;20090;-79